sensor_id;sensor_type;location;lat;lon;timestamp;temperature;humidity
58413;DHT22;44209;52.952;6.790;2023-05-21T00:02:08;13.80;99.90
58413;DHT22;44209;52.952;6.790;2023-05-21T00:04:40;13.80;99.90
58413;DHT22;44209;52.952;6.790;2023-05-21T00:07:06;13.90;99.90
58413;DHT22;44209;52.952;6.790;2023-05-21T00:09:33;13.80;99.90
58413;DHT22;44209;52.952;6.790;2023-05-21T00:11:59;13.80;99.90
58413;DHT22;44209;52.952;6.790;2023-05-21T00:14:25;13.80;99.90
58413;DHT22;44209;52.952;6.790;2023-05-21T00:16:51;13.80;99.90
58413;DHT22;44209;52.952;6.790;2023-05-21T00:19:17;13.80;99.90
58413;DHT22;44209;52.952;6.790;2023-05-21T00:21:42;13.80;99.90
58413;DHT22;44209;52.952;6.790;2023-05-21T00:24:10;13.80;99.90
58413;DHT22;44209;52.952;6.790;2023-05-21T00:26:36;13.80;99.90
58413;DHT22;44209;52.952;6.790;2023-05-21T00:29:02;13.80;99.90
58413;DHT22;44209;52.952;6.790;2023-05-21T00:31:28;13.80;99.90
58413;DHT22;44209;52.952;6.790;2023-05-21T00:33:54;13.70;99.90
58413;DHT22;44209;52.952;6.790;2023-05-21T00:36:19;13.70;99.90
58413;DHT22;44209;52.952;6.790;2023-05-21T00:38:49;13.70;99.90
58413;DHT22;44209;52.952;6.790;2023-05-21T00:41:15;13.80;99.90
58413;DHT22;44209;52.952;6.790;2023-05-21T00:43:41;13.70;99.90
58413;DHT22;44209;52.952;6.790;2023-05-21T00:46:18;13.70;99.90
58413;DHT22;44209;52.952;6.790;2023-05-21T00:48:46;13.70;99.90
58413;DHT22;44209;52.952;6.790;2023-05-21T00:51:15;13.70;99.90
58413;DHT22;44209;52.952;6.790;2023-05-21T00:53:43;13.70;99.90
58413;DHT22;44209;52.952;6.790;2023-05-21T00:56:10;13.70;99.90
58413;DHT22;44209;52.952;6.790;2023-05-21T00:58:36;13.70;99.90
58413;DHT22;44209;52.952;6.790;2023-05-21T01:01:09;13.70;99.90
58413;DHT22;44209;52.952;6.790;2023-05-21T01:03:39;13.70;99.90
58413;DHT22;44209;52.952;6.790;2023-05-21T01:06:06;13.70;99.90
58413;DHT22;44209;52.952;6.790;2023-05-21T01:08:32;13.70;99.90
58413;DHT22;44209;52.952;6.790;2023-05-21T01:11:06;13.70;99.90
58413;DHT22;44209;52.952;6.790;2023-05-21T01:13:34;13.70;99.90
58413;DHT22;44209;52.952;6.790;2023-05-21T01:16:02;13.70;99.90
58413;DHT22;44209;52.952;6.790;2023-05-21T01:18:28;13.70;99.90
58413;DHT22;44209;52.952;6.790;2023-05-21T01:20:54;13.60;99.90
58413;DHT22;44209;52.952;6.790;2023-05-21T01:23:22;13.60;99.90
58413;DHT22;44209;52.952;6.790;2023-05-21T01:25:51;13.50;99.90
58413;DHT22;44209;52.952;6.790;2023-05-21T01:28:16;13.50;99.90
58413;DHT22;44209;52.952;6.790;2023-05-21T01:30:43;13.40;99.90
58413;DHT22;44209;52.952;6.790;2023-05-21T01:33:27;13.40;99.90
58413;DHT22;44209;52.952;6.790;2023-05-21T01:36:07;13.40;99.90
58413;DHT22;44209;52.952;6.790;2023-05-21T01:38:42;13.40;99.90
58413;DHT22;44209;52.952;6.790;2023-05-21T01:41:15;13.40;99.90
58413;DHT22;44209;52.952;6.790;2023-05-21T01:43:44;13.40;99.90
58413;DHT22;44209;52.952;6.790;2023-05-21T01:46:22;13.40;99.90
58413;DHT22;44209;52.952;6.790;2023-05-21T01:48:49;13.40;99.90
58413;DHT22;44209;52.952;6.790;2023-05-21T01:51:15;13.40;99.90
58413;DHT22;44209;52.952;6.790;2023-05-21T01:53:41;13.40;99.90
58413;DHT22;44209;52.952;6.790;2023-05-21T01:56:07;13.40;99.90
58413;DHT22;44209;52.952;6.790;2023-05-21T01:58:33;13.50;99.90
58413;DHT22;44209;52.952;6.790;2023-05-21T02:00:58;13.40;99.90
58413;DHT22;44209;52.952;6.790;2023-05-21T02:03:25;13.50;99.90
58413;DHT22;44209;52.952;6.790;2023-05-21T02:05:55;13.50;99.90
58413;DHT22;44209;52.952;6.790;2023-05-21T02:08:21;13.40;99.90
58413;DHT22;44209;52.952;6.790;2023-05-21T02:10:48;13.40;99.90
58413;DHT22;44209;52.952;6.790;2023-05-21T02:13:14;13.40;99.90
58413;DHT22;44209;52.952;6.790;2023-05-21T02:15:40;13.40;99.90
58413;DHT22;44209;52.952;6.790;2023-05-21T02:18:06;13.50;99.90
58413;DHT22;44209;52.952;6.790;2023-05-21T02:20:32;13.40;99.90
58413;DHT22;44209;52.952;6.790;2023-05-21T02:23:01;13.40;99.90
58413;DHT22;44209;52.952;6.790;2023-05-21T02:25:30;13.40;99.90
58413;DHT22;44209;52.952;6.790;2023-05-21T02:27:59;13.40;99.90
58413;DHT22;44209;52.952;6.790;2023-05-21T02:30:25;13.40;99.90
58413;DHT22;44209;52.952;6.790;2023-05-21T02:32:54;13.40;99.90
58413;DHT22;44209;52.952;6.790;2023-05-21T02:35:20;13.40;99.90
58413;DHT22;44209;52.952;6.790;2023-05-21T02:37:48;13.30;99.90
58413;DHT22;44209;52.952;6.790;2023-05-21T02:40:14;13.40;99.90
58413;DHT22;44209;52.952;6.790;2023-05-21T02:42:40;13.30;99.90
58413;DHT22;44209;52.952;6.790;2023-05-21T02:45:10;13.40;99.90
58413;DHT22;44209;52.952;6.790;2023-05-21T02:47:36;13.30;99.90
58413;DHT22;44209;52.952;6.790;2023-05-21T02:50:06;13.30;99.90
58413;DHT22;44209;52.952;6.790;2023-05-21T02:52:32;13.30;99.90
58413;DHT22;44209;52.952;6.790;2023-05-21T02:54:58;13.40;99.90
58413;DHT22;44209;52.952;6.790;2023-05-21T02:57:26;13.30;99.90
58413;DHT22;44209;52.952;6.790;2023-05-21T02:59:51;13.40;99.90
58413;DHT22;44209;52.952;6.790;2023-05-21T03:02:17;13.40;99.90
58413;DHT22;44209;52.952;6.790;2023-05-21T03:04:43;13.30;99.90
58413;DHT22;44209;52.952;6.790;2023-05-21T03:07:15;13.30;99.90
58413;DHT22;44209;52.952;6.790;2023-05-21T03:09:43;13.30;99.90
58413;DHT22;44209;52.952;6.790;2023-05-21T03:12:09;13.30;99.90
58413;DHT22;44209;52.952;6.790;2023-05-21T03:14:35;13.30;99.90
58413;DHT22;44209;52.952;6.790;2023-05-21T03:17:01;13.30;99.90
58413;DHT22;44209;52.952;6.790;2023-05-21T03:19:33;13.30;99.90
58413;DHT22;44209;52.952;6.790;2023-05-21T03:22:03;13.30;99.90
58413;DHT22;44209;52.952;6.790;2023-05-21T03:24:29;13.30;99.90
58413;DHT22;44209;52.952;6.790;2023-05-21T03:26:56;13.30;99.90
58413;DHT22;44209;52.952;6.790;2023-05-21T03:29:22;13.30;99.90
58413;DHT22;44209;52.952;6.790;2023-05-21T03:31:47;13.30;99.90
58413;DHT22;44209;52.952;6.790;2023-05-21T03:34:13;13.30;99.90
58413;DHT22;44209;52.952;6.790;2023-05-21T03:36:39;13.30;99.90
58413;DHT22;44209;52.952;6.790;2023-05-21T03:39:05;13.20;99.90
58413;DHT22;44209;52.952;6.790;2023-05-21T03:41:31;13.30;99.90
58413;DHT22;44209;52.952;6.790;2023-05-21T03:43:57;13.20;99.90
58413;DHT22;44209;52.952;6.790;2023-05-21T03:46:22;13.20;99.90
58413;DHT22;44209;52.952;6.790;2023-05-21T03:48:48;13.20;99.90
58413;DHT22;44209;52.952;6.790;2023-05-21T03:51:14;13.20;99.90
58413;DHT22;44209;52.952;6.790;2023-05-21T03:53:40;13.20;99.90
58413;DHT22;44209;52.952;6.790;2023-05-21T03:56:06;13.20;99.90
58413;DHT22;44209;52.952;6.790;2023-05-21T03:58:32;13.20;99.90
58413;DHT22;44209;52.952;6.790;2023-05-21T04:00:57;13.20;99.90
58413;DHT22;44209;52.952;6.790;2023-05-21T04:03:23;13.20;99.90
58413;DHT22;44209;52.952;6.790;2023-05-21T04:05:49;13.20;99.90
58413;DHT22;44209;52.952;6.790;2023-05-21T04:08:15;13.20;99.90
58413;DHT22;44209;52.952;6.790;2023-05-21T04:10:41;13.20;99.90
58413;DHT22;44209;52.952;6.790;2023-05-21T04:13:07;13.10;99.90
58413;DHT22;44209;52.952;6.790;2023-05-21T04:15:32;13.10;99.90
58413;DHT22;44209;52.952;6.790;2023-05-21T04:17:59;13.10;99.90
58413;DHT22;44209;52.952;6.790;2023-05-21T04:20:24;13.10;99.90
58413;DHT22;44209;52.952;6.790;2023-05-21T04:22:50;13.10;99.90
58413;DHT22;44209;52.952;6.790;2023-05-21T04:25:16;13.10;99.90
58413;DHT22;44209;52.952;6.790;2023-05-21T04:27:42;13.20;99.90
58413;DHT22;44209;52.952;6.790;2023-05-21T04:30:12;13.20;99.90
58413;DHT22;44209;52.952;6.790;2023-05-21T04:32:38;13.20;99.90
58413;DHT22;44209;52.952;6.790;2023-05-21T04:35:04;13.20;99.90
58413;DHT22;44209;52.952;6.790;2023-05-21T04:37:30;13.20;99.90
58413;DHT22;44209;52.952;6.790;2023-05-21T04:39:59;13.20;99.90
58413;DHT22;44209;52.952;6.790;2023-05-21T04:42:28;13.20;99.90
58413;DHT22;44209;52.952;6.790;2023-05-21T04:44:55;13.20;99.90
58413;DHT22;44209;52.952;6.790;2023-05-21T04:47:23;13.20;99.90
58413;DHT22;44209;52.952;6.790;2023-05-21T04:49:49;13.20;99.90
58413;DHT22;44209;52.952;6.790;2023-05-21T04:52:15;13.20;99.90
58413;DHT22;44209;52.952;6.790;2023-05-21T04:54:41;13.20;99.90
58413;DHT22;44209;52.952;6.790;2023-05-21T04:57:07;13.20;99.90
58413;DHT22;44209;52.952;6.790;2023-05-21T04:59:36;13.20;99.90
58413;DHT22;44209;52.952;6.790;2023-05-21T05:02:02;13.20;99.90
58413;DHT22;44209;52.952;6.790;2023-05-21T05:04:27;13.20;99.90
58413;DHT22;44209;52.952;6.790;2023-05-21T05:06:53;13.20;99.90
58413;DHT22;44209;52.952;6.790;2023-05-21T05:09:19;13.20;99.90
58413;DHT22;44209;52.952;6.790;2023-05-21T05:11:50;13.20;99.90
58413;DHT22;44209;52.952;6.790;2023-05-21T05:14:15;13.20;99.90
58413;DHT22;44209;52.952;6.790;2023-05-21T05:16:41;13.30;99.90
58413;DHT22;44209;52.952;6.790;2023-05-21T05:19:07;13.30;99.90
58413;DHT22;44209;52.952;6.790;2023-05-21T05:21:33;13.30;99.90
58413;DHT22;44209;52.952;6.790;2023-05-21T05:23:59;13.30;99.90
58413;DHT22;44209;52.952;6.790;2023-05-21T05:26:25;13.30;99.90
58413;DHT22;44209;52.952;6.790;2023-05-21T05:28:51;13.40;99.90
58413;DHT22;44209;52.952;6.790;2023-05-21T05:31:17;13.40;99.90
58413;DHT22;44209;52.952;6.790;2023-05-21T05:33:42;13.40;99.90
58413;DHT22;44209;52.952;6.790;2023-05-21T05:36:08;13.40;99.90
58413;DHT22;44209;52.952;6.790;2023-05-21T05:38:34;13.40;99.90
58413;DHT22;44209;52.952;6.790;2023-05-21T05:41:00;13.50;99.90
58413;DHT22;44209;52.952;6.790;2023-05-21T05:43:26;13.50;99.90
58413;DHT22;44209;52.952;6.790;2023-05-21T05:45:52;13.50;99.90
58413;DHT22;44209;52.952;6.790;2023-05-21T05:48:18;13.50;99.90
58413;DHT22;44209;52.952;6.790;2023-05-21T05:50:44;13.50;99.90
58413;DHT22;44209;52.952;6.790;2023-05-21T05:53:09;13.50;99.90
58413;DHT22;44209;52.952;6.790;2023-05-21T05:55:38;13.50;99.90
58413;DHT22;44209;52.952;6.790;2023-05-21T05:58:04;13.50;99.90
58413;DHT22;44209;52.952;6.790;2023-05-21T06:00:30;13.50;99.90
58413;DHT22;44209;52.952;6.790;2023-05-21T06:02:56;13.50;99.90
58413;DHT22;44209;52.952;6.790;2023-05-21T06:05:22;13.50;99.90
58413;DHT22;44209;52.952;6.790;2023-05-21T06:07:47;13.60;99.90
58413;DHT22;44209;52.952;6.790;2023-05-21T06:10:13;13.60;99.90
58413;DHT22;44209;52.952;6.790;2023-05-21T06:12:39;13.60;99.90
58413;DHT22;44209;52.952;6.790;2023-05-21T06:15:05;13.60;99.90
58413;DHT22;44209;52.952;6.790;2023-05-21T06:17:31;13.60;99.90
58413;DHT22;44209;52.952;6.790;2023-05-21T06:19:57;13.60;99.90
58413;DHT22;44209;52.952;6.790;2023-05-21T06:22:23;13.60;99.90
58413;DHT22;44209;52.952;6.790;2023-05-21T06:24:48;13.70;99.90
58413;DHT22;44209;52.952;6.790;2023-05-21T06:27:14;13.70;99.90
58413;DHT22;44209;52.952;6.790;2023-05-21T06:29:40;13.70;99.90
58413;DHT22;44209;52.952;6.790;2023-05-21T06:32:07;13.80;99.90
58413;DHT22;44209;52.952;6.790;2023-05-21T06:34:33;13.80;99.90
58413;DHT22;44209;52.952;6.790;2023-05-21T06:36:58;13.80;99.90
58413;DHT22;44209;52.952;6.790;2023-05-21T06:39:24;13.90;99.90
58413;DHT22;44209;52.952;6.790;2023-05-21T06:41:52;13.90;99.90
58413;DHT22;44209;52.952;6.790;2023-05-21T06:44:17;14.00;99.90
58413;DHT22;44209;52.952;6.790;2023-05-21T06:46:43;14.00;99.90
58413;DHT22;44209;52.952;6.790;2023-05-21T06:49:12;14.10;99.90
58413;DHT22;44209;52.952;6.790;2023-05-21T06:51:39;14.10;99.90
58413;DHT22;44209;52.952;6.790;2023-05-21T06:54:05;14.20;99.90
58413;DHT22;44209;52.952;6.790;2023-05-21T06:56:30;14.20;99.90
58413;DHT22;44209;52.952;6.790;2023-05-21T06:58:56;14.30;99.90
58413;DHT22;44209;52.952;6.790;2023-05-21T07:01:22;14.30;99.90
58413;DHT22;44209;52.952;6.790;2023-05-21T07:03:48;14.30;99.90
58413;DHT22;44209;52.952;6.790;2023-05-21T07:06:14;14.50;99.90
58413;DHT22;44209;52.952;6.790;2023-05-21T07:08:41;14.50;99.90
58413;DHT22;44209;52.952;6.790;2023-05-21T07:11:07;14.50;99.90
58413;DHT22;44209;52.952;6.790;2023-05-21T07:13:35;14.50;99.90
58413;DHT22;44209;52.952;6.790;2023-05-21T07:16:01;14.50;99.90
58413;DHT22;44209;52.952;6.790;2023-05-21T07:18:27;14.50;99.90
58413;DHT22;44209;52.952;6.790;2023-05-21T07:20:52;14.60;99.90
58413;DHT22;44209;52.952;6.790;2023-05-21T07:23:20;14.60;99.90
58413;DHT22;44209;52.952;6.790;2023-05-21T07:25:46;14.70;99.90
58413;DHT22;44209;52.952;6.790;2023-05-21T07:28:15;14.70;99.90
58413;DHT22;44209;52.952;6.790;2023-05-21T07:30:44;14.80;99.90
58413;DHT22;44209;52.952;6.790;2023-05-21T07:33:09;14.80;99.90
58413;DHT22;44209;52.952;6.790;2023-05-21T07:35:36;14.80;99.90
58413;DHT22;44209;52.952;6.790;2023-05-21T07:38:02;14.90;99.90
58413;DHT22;44209;52.952;6.790;2023-05-21T07:40:28;15.00;99.90
58413;DHT22;44209;52.952;6.790;2023-05-21T07:42:54;14.90;99.90
58413;DHT22;44209;52.952;6.790;2023-05-21T07:45:19;14.90;99.90
58413;DHT22;44209;52.952;6.790;2023-05-21T07:47:45;14.90;99.90
58413;DHT22;44209;52.952;6.790;2023-05-21T07:50:11;14.90;99.90
58413;DHT22;44209;52.952;6.790;2023-05-21T07:52:37;14.90;99.90
58413;DHT22;44209;52.952;6.790;2023-05-21T07:55:03;14.90;99.90
58413;DHT22;44209;52.952;6.790;2023-05-21T07:57:29;15.00;99.90
58413;DHT22;44209;52.952;6.790;2023-05-21T07:59:54;15.10;99.90
58413;DHT22;44209;52.952;6.790;2023-05-21T08:02:22;15.10;99.90
58413;DHT22;44209;52.952;6.790;2023-05-21T08:04:48;15.10;99.90
58413;DHT22;44209;52.952;6.790;2023-05-21T08:07:13;15.10;99.90
58413;DHT22;44209;52.952;6.790;2023-05-21T08:09:41;15.20;99.90
58413;DHT22;44209;52.952;6.790;2023-05-21T08:12:07;15.20;99.90
58413;DHT22;44209;52.952;6.790;2023-05-21T08:14:33;15.20;99.90
58413;DHT22;44209;52.952;6.790;2023-05-21T08:16:58;15.40;99.90
58413;DHT22;44209;52.952;6.790;2023-05-21T08:19:24;15.40;99.90
58413;DHT22;44209;52.952;6.790;2023-05-21T08:21:53;15.50;99.90
58413;DHT22;44209;52.952;6.790;2023-05-21T08:24:23;15.50;99.90
58413;DHT22;44209;52.952;6.790;2023-05-21T08:26:49;15.50;99.90
58413;DHT22;44209;52.952;6.790;2023-05-21T08:29:15;15.50;99.90
58413;DHT22;44209;52.952;6.790;2023-05-21T08:31:41;15.50;99.90
58413;DHT22;44209;52.952;6.790;2023-05-21T08:34:06;15.50;99.90
58413;DHT22;44209;52.952;6.790;2023-05-21T08:36:32;15.60;99.90
58413;DHT22;44209;52.952;6.790;2023-05-21T08:38:58;15.60;99.90
58413;DHT22;44209;52.952;6.790;2023-05-21T08:41:26;15.70;99.90
58413;DHT22;44209;52.952;6.790;2023-05-21T08:43:55;15.70;99.90
58413;DHT22;44209;52.952;6.790;2023-05-21T08:46:22;15.70;99.90
58413;DHT22;44209;52.952;6.790;2023-05-21T08:48:52;15.80;99.90
58413;DHT22;44209;52.952;6.790;2023-05-21T08:51:20;15.80;99.90
58413;DHT22;44209;52.952;6.790;2023-05-21T08:53:46;15.90;99.90
58413;DHT22;44209;52.952;6.790;2023-05-21T08:56:18;16.00;99.90
58413;DHT22;44209;52.952;6.790;2023-05-21T08:58:45;16.10;99.90
58413;DHT22;44209;52.952;6.790;2023-05-21T09:01:11;16.10;99.90
58413;DHT22;44209;52.952;6.790;2023-05-21T09:03:41;16.10;99.90
58413;DHT22;44209;52.952;6.790;2023-05-21T09:06:11;16.20;99.90
58413;DHT22;44209;52.952;6.790;2023-05-21T09:08:51;16.30;99.90
58413;DHT22;44209;52.952;6.790;2023-05-21T09:11:18;16.40;99.90
58413;DHT22;44209;52.952;6.790;2023-05-21T09:13:44;16.40;99.90
58413;DHT22;44209;52.952;6.790;2023-05-21T09:16:11;16.40;99.90
58413;DHT22;44209;52.952;6.790;2023-05-21T09:18:36;16.50;99.90
58413;DHT22;44209;52.952;6.790;2023-05-21T09:21:22;16.60;99.90
58413;DHT22;44209;52.952;6.790;2023-05-21T09:23:56;16.80;99.90
58413;DHT22;44209;52.952;6.790;2023-05-21T09:26:23;16.90;99.90
58413;DHT22;44209;52.952;6.790;2023-05-21T09:28:59;17.00;99.90
58413;DHT22;44209;52.952;6.790;2023-05-21T09:31:34;17.10;99.90
58413;DHT22;44209;52.952;6.790;2023-05-21T09:34:03;17.10;99.90
58413;DHT22;44209;52.952;6.790;2023-05-21T09:36:28;17.10;99.90
58413;DHT22;44209;52.952;6.790;2023-05-21T09:41:59;17.30;99.90
58413;DHT22;44209;52.952;6.790;2023-05-21T09:44:25;17.40;99.90
58413;DHT22;44209;52.952;6.790;2023-05-21T09:46:56;17.60;99.90
58413;DHT22;44209;52.952;6.790;2023-05-21T09:49:24;17.70;99.90
58413;DHT22;44209;52.952;6.790;2023-05-21T09:51:54;17.70;99.90
58413;DHT22;44209;52.952;6.790;2023-05-21T09:54:24;17.70;99.90
58413;DHT22;44209;52.952;6.790;2023-05-21T09:56:56;17.70;99.90
58413;DHT22;44209;52.952;6.790;2023-05-21T09:59:37;17.80;99.90
58413;DHT22;44209;52.952;6.790;2023-05-21T10:02:32;17.90;99.90
58413;DHT22;44209;52.952;6.790;2023-05-21T10:05:07;17.90;99.90
58413;DHT22;44209;52.952;6.790;2023-05-21T10:07:35;17.90;99.90
58413;DHT22;44209;52.952;6.790;2023-05-21T10:10:05;17.80;99.90
58413;DHT22;44209;52.952;6.790;2023-05-21T10:12:32;17.70;99.90
58413;DHT22;44209;52.952;6.790;2023-05-21T10:15:03;17.80;99.90
58413;DHT22;44209;52.952;6.790;2023-05-21T10:17:29;17.80;99.90
58413;DHT22;44209;52.952;6.790;2023-05-21T10:19:55;17.70;99.90
58413;DHT22;44209;52.952;6.790;2023-05-21T10:22:25;17.60;99.90
58413;DHT22;44209;52.952;6.790;2023-05-21T10:24:52;17.50;99.90
58413;DHT22;44209;52.952;6.790;2023-05-21T10:27:22;17.60;99.90
58413;DHT22;44209;52.952;6.790;2023-05-21T10:29:48;17.60;99.90
58413;DHT22;44209;52.952;6.790;2023-05-21T10:32:15;17.70;99.90
58413;DHT22;44209;52.952;6.790;2023-05-21T10:34:45;17.80;99.90
58413;DHT22;44209;52.952;6.790;2023-05-21T10:37:13;18.00;99.90
58413;DHT22;44209;52.952;6.790;2023-05-21T10:39:42;18.10;99.90
58413;DHT22;44209;52.952;6.790;2023-05-21T10:45:19;18.20;99.90
58413;DHT22;44209;52.952;6.790;2023-05-21T10:59:47;18.90;99.90
58413;DHT22;44209;52.952;6.790;2023-05-21T11:02:14;19.10;99.90
58413;DHT22;44209;52.952;6.790;2023-05-21T11:04:46;19.20;99.90
58413;DHT22;44209;52.952;6.790;2023-05-21T11:07:14;19.20;99.90
58413;DHT22;44209;52.952;6.790;2023-05-21T11:09:49;19.30;99.90
58413;DHT22;44209;52.952;6.790;2023-05-21T11:12:15;19.40;99.90
58413;DHT22;44209;52.952;6.790;2023-05-21T11:14:56;19.50;99.90
58413;DHT22;44209;52.952;6.790;2023-05-21T11:17:38;19.50;99.90
58413;DHT22;44209;52.952;6.790;2023-05-21T11:20:10;19.40;99.90
58413;DHT22;44209;52.952;6.790;2023-05-21T11:22:39;19.40;99.90
58413;DHT22;44209;52.952;6.790;2023-05-21T11:25:07;19.50;99.90
58413;DHT22;44209;52.952;6.790;2023-05-21T11:27:41;19.60;99.90
58413;DHT22;44209;52.952;6.790;2023-05-21T11:30:25;19.70;99.90
58413;DHT22;44209;52.952;6.790;2023-05-21T11:38:12;20.10;99.90
58413;DHT22;44209;52.952;6.790;2023-05-21T11:40:51;20.10;99.90
58413;DHT22;44209;52.952;6.790;2023-05-21T11:43:20;20.10;99.90
58413;DHT22;44209;52.952;6.790;2023-05-21T11:45:51;20.20;99.90
58413;DHT22;44209;52.952;6.790;2023-05-21T11:48:17;20.40;99.90
58413;DHT22;44209;52.952;6.790;2023-05-21T11:50:45;20.40;99.90
58413;DHT22;44209;52.952;6.790;2023-05-21T11:53:11;20.40;99.90
58413;DHT22;44209;52.952;6.790;2023-05-21T11:55:42;20.50;99.90
58413;DHT22;44209;52.952;6.790;2023-05-21T11:58:12;20.40;99.90
58413;DHT22;44209;52.952;6.790;2023-05-21T12:00:39;20.50;99.90
58413;DHT22;44209;52.952;6.790;2023-05-21T12:03:05;20.50;99.90
58413;DHT22;44209;52.952;6.790;2023-05-21T12:05:47;20.60;99.90
58413;DHT22;44209;52.952;6.790;2023-05-21T12:08:20;20.60;99.90
58413;DHT22;44209;52.952;6.790;2023-05-21T12:10:58;20.60;99.90
58413;DHT22;44209;52.952;6.790;2023-05-21T12:13:24;20.70;99.90
58413;DHT22;44209;52.952;6.790;2023-05-21T12:15:55;20.60;99.90
58413;DHT22;44209;52.952;6.790;2023-05-21T12:18:21;20.60;99.90
58413;DHT22;44209;52.952;6.790;2023-05-21T12:20:46;20.60;99.90
58413;DHT22;44209;52.952;6.790;2023-05-21T12:23:22;20.70;99.90
58413;DHT22;44209;52.952;6.790;2023-05-21T12:25:48;20.80;99.90
58413;DHT22;44209;52.952;6.790;2023-05-21T12:28:14;20.90;99.90
58413;DHT22;44209;52.952;6.790;2023-05-21T12:30:43;21.10;99.90
58413;DHT22;44209;52.952;6.790;2023-05-21T12:33:09;21.10;99.90
58413;DHT22;44209;52.952;6.790;2023-05-21T12:35:39;21.10;99.90
58413;DHT22;44209;52.952;6.790;2023-05-21T12:38:06;21.20;99.90
58413;DHT22;44209;52.952;6.790;2023-05-21T12:40:35;21.40;99.90
58413;DHT22;44209;52.952;6.790;2023-05-21T12:43:01;21.40;99.90
58413;DHT22;44209;52.952;6.790;2023-05-21T12:45:29;21.40;99.90
58413;DHT22;44209;52.952;6.790;2023-05-21T12:47:55;21.40;99.90
58413;DHT22;44209;52.952;6.790;2023-05-21T12:50:21;21.30;99.90
58413;DHT22;44209;52.952;6.790;2023-05-21T12:52:47;21.40;99.90
58413;DHT22;44209;52.952;6.790;2023-05-21T12:55:16;21.60;99.90
58413;DHT22;44209;52.952;6.790;2023-05-21T12:57:48;21.60;99.90
58413;DHT22;44209;52.952;6.790;2023-05-21T13:00:22;21.40;99.90
58413;DHT22;44209;52.952;6.790;2023-05-21T13:02:50;21.30;99.90
58413;DHT22;44209;52.952;6.790;2023-05-21T13:05:18;21.20;99.90
58413;DHT22;44209;52.952;6.790;2023-05-21T13:07:45;21.40;99.90
58413;DHT22;44209;52.952;6.790;2023-05-21T13:10:12;21.60;99.90
58413;DHT22;44209;52.952;6.790;2023-05-21T13:12:41;21.60;99.90
58413;DHT22;44209;52.952;6.790;2023-05-21T13:15:16;21.60;99.90
58413;DHT22;44209;52.952;6.790;2023-05-21T13:17:42;21.60;99.90
58413;DHT22;44209;52.952;6.790;2023-05-21T13:20:09;21.60;99.90
58413;DHT22;44209;52.952;6.790;2023-05-21T13:22:49;21.80;99.90
58413;DHT22;44209;52.952;6.790;2023-05-21T13:25:22;21.90;99.90
58413;DHT22;44209;52.952;6.790;2023-05-21T13:27:55;22.00;99.90
58413;DHT22;44209;52.952;6.790;2023-05-21T13:30:22;22.00;99.90
58413;DHT22;44209;52.952;6.790;2023-05-21T13:33:10;21.90;99.90
58413;DHT22;44209;52.952;6.790;2023-05-21T13:35:36;22.10;99.90
58413;DHT22;44209;52.952;6.790;2023-05-21T13:38:02;22.10;99.90
58413;DHT22;44209;52.952;6.790;2023-05-21T13:40:30;22.10;99.90
58413;DHT22;44209;52.952;6.790;2023-05-21T13:42:59;22.20;99.90
58413;DHT22;44209;52.952;6.790;2023-05-21T13:45:34;22.30;99.90
58413;DHT22;44209;52.952;6.790;2023-05-21T13:48:00;22.40;99.90
58413;DHT22;44209;52.952;6.790;2023-05-21T13:50:26;22.50;99.90
58413;DHT22;44209;52.952;6.790;2023-05-21T13:52:58;22.70;99.90
58413;DHT22;44209;52.952;6.790;2023-05-21T13:55:23;22.60;99.90
58413;DHT22;44209;52.952;6.790;2023-05-21T13:57:52;22.40;99.90
58413;DHT22;44209;52.952;6.790;2023-05-21T14:00:18;22.40;99.90
58413;DHT22;44209;52.952;6.790;2023-05-21T14:02:49;22.50;99.90
58413;DHT22;44209;52.952;6.790;2023-05-21T14:05:18;22.50;99.90
58413;DHT22;44209;52.952;6.790;2023-05-21T14:07:47;22.50;99.90
58413;DHT22;44209;52.952;6.790;2023-05-21T14:10:13;22.40;99.90
58413;DHT22;44209;52.952;6.790;2023-05-21T14:12:47;22.40;99.90
58413;DHT22;44209;52.952;6.790;2023-05-21T14:15:14;22.30;99.90
58413;DHT22;44209;52.952;6.790;2023-05-21T14:17:40;22.40;99.90
58413;DHT22;44209;52.952;6.790;2023-05-21T14:20:07;22.40;99.90
58413;DHT22;44209;52.952;6.790;2023-05-21T14:22:37;22.50;99.90
58413;DHT22;44209;52.952;6.790;2023-05-21T14:25:06;22.40;99.90
58413;DHT22;44209;52.952;6.790;2023-05-21T14:27:34;22.30;99.90
58413;DHT22;44209;52.952;6.790;2023-05-21T14:30:02;22.10;99.90
58413;DHT22;44209;52.952;6.790;2023-05-21T14:32:31;22.10;99.90
58413;DHT22;44209;52.952;6.790;2023-05-21T14:34:57;22.20;99.90
58413;DHT22;44209;52.952;6.790;2023-05-21T14:37:26;22.30;99.90
58413;DHT22;44209;52.952;6.790;2023-05-21T14:39:52;22.50;99.90
58413;DHT22;44209;52.952;6.790;2023-05-21T14:42:21;22.70;99.90
58413;DHT22;44209;52.952;6.790;2023-05-21T14:44:47;22.90;99.90
58413;DHT22;44209;52.952;6.790;2023-05-21T14:47:12;23.10;99.90
58413;DHT22;44209;52.952;6.790;2023-05-21T14:49:51;23.30;99.90
58413;DHT22;44209;52.952;6.790;2023-05-21T14:52:17;23.20;99.90
58413;DHT22;44209;52.952;6.790;2023-05-21T14:54:42;23.00;99.90
58413;DHT22;44209;52.952;6.790;2023-05-21T14:57:08;23.10;99.90
58413;DHT22;44209;52.952;6.790;2023-05-21T14:59:34;23.20;99.90
58413;DHT22;44209;52.952;6.790;2023-05-21T15:02:03;23.30;99.90
58413;DHT22;44209;52.952;6.790;2023-05-21T15:04:28;23.30;99.90
58413;DHT22;44209;52.952;6.790;2023-05-21T15:06:54;23.20;99.90
58413;DHT22;44209;52.952;6.790;2023-05-21T15:09:20;23.40;99.90
58413;DHT22;44209;52.952;6.790;2023-05-21T15:11:46;23.60;99.90
58413;DHT22;44209;52.952;6.790;2023-05-21T15:14:17;23.60;99.90
58413;DHT22;44209;52.952;6.790;2023-05-21T15:16:43;23.50;99.90
58413;DHT22;44209;52.952;6.790;2023-05-21T15:19:08;23.40;99.90
58413;DHT22;44209;52.952;6.790;2023-05-21T15:21:36;23.40;99.90
58413;DHT22;44209;52.952;6.790;2023-05-21T15:24:02;23.50;99.90
58413;DHT22;44209;52.952;6.790;2023-05-21T15:26:28;23.50;99.90
58413;DHT22;44209;52.952;6.790;2023-05-21T15:28:53;23.50;99.90
58413;DHT22;44209;52.952;6.790;2023-05-21T15:31:19;23.50;99.90
58413;DHT22;44209;52.952;6.790;2023-05-21T15:33:45;23.60;99.90
58413;DHT22;44209;52.952;6.790;2023-05-21T15:36:17;23.60;99.90
58413;DHT22;44209;52.952;6.790;2023-05-21T15:38:43;23.50;99.90
58413;DHT22;44209;52.952;6.790;2023-05-21T15:41:09;23.40;99.90
58413;DHT22;44209;52.952;6.790;2023-05-21T15:43:35;23.30;99.90
58413;DHT22;44209;52.952;6.790;2023-05-21T15:46:00;23.20;99.90
58413;DHT22;44209;52.952;6.790;2023-05-21T15:48:26;23.10;99.90
58413;DHT22;44209;52.952;6.790;2023-05-21T15:50:52;23.20;99.90
58413;DHT22;44209;52.952;6.790;2023-05-21T15:53:18;23.10;99.90
58413;DHT22;44209;52.952;6.790;2023-05-21T15:55:44;23.10;99.90
58413;DHT22;44209;52.952;6.790;2023-05-21T15:58:10;23.10;99.90